sensor_id;sensor_type;location;lat;lon;timestamp;pressure;altitude;pressure_sealevel;temperature;humidity
16355;BME280;8287;51.644;8.494;2023-05-20T00:00:00;101162.59;;;13.85;66.45
16355;BME280;8287;51.644;8.494;2023-05-20T00:02:27;101165.91;;;13.90;66.94
16355;BME280;8287;51.644;8.494;2023-05-20T00:04:53;101156.53;;;13.93;66.87
16355;BME280;8287;51.644;8.494;2023-05-20T00:07:21;101151.47;;;13.91;66.84
16355;BME280;8287;51.644;8.494;2023-05-20T00:09:48;101155.34;;;13.85;66.13
16355;BME280;8287;51.644;8.494;2023-05-20T00:12:15;101151.78;;;13.90;65.72
16355;BME280;8287;51.644;8.494;2023-05-20T00:14:41;101148.09;;;14.08;66.84
16355;BME280;8287;51.644;8.494;2023-05-20T00:17:08;101141.88;;;14.12;66.33
16355;BME280;8287;51.644;8.494;2023-05-20T00:19:34;101143.19;;;14.23;66.93
16355;BME280;8287;51.644;8.494;2023-05-20T00:22:01;101131.91;;;14.26;66.74
16355;BME280;8287;51.644;8.494;2023-05-20T00:24:29;101127.81;;;14.20;66.65
16355;BME280;8287;51.644;8.494;2023-05-20T00:26:56;101143.03;;;14.28;66.93
16355;BME280;8287;51.644;8.494;2023-05-20T00:29:22;101142.09;;;14.24;66.26
16355;BME280;8287;51.644;8.494;2023-05-20T00:31:49;101142.72;;;14.21;65.85
16355;BME280;8287;51.644;8.494;2023-05-20T00:34:15;101148.06;;;13.99;66.25
16355;BME280;8287;51.644;8.494;2023-05-20T00:36:42;101153.69;;;13.98;66.69
16355;BME280;8287;51.644;8.494;2023-05-20T00:39:08;101153.09;;;14.01;66.40
16355;BME280;8287;51.644;8.494;2023-05-20T00:41:36;101151.09;;;14.06;67.00
16355;BME280;8287;51.644;8.494;2023-05-20T00:44:03;101148.69;;;13.96;67.93
16355;BME280;8287;51.644;8.494;2023-05-20T00:46:30;101149.47;;;13.97;67.42
16355;BME280;8287;51.644;8.494;2023-05-20T00:48:57;101141.81;;;14.04;68.30
16355;BME280;8287;51.644;8.494;2023-05-20T00:51:23;101142.28;;;13.97;68.33
16355;BME280;8287;51.644;8.494;2023-05-20T00:53:50;101140.38;;;13.98;67.90
16355;BME280;8287;51.644;8.494;2023-05-20T00:56:17;101139.44;;;13.94;68.16
16355;BME280;8287;51.644;8.494;2023-05-20T00:58:45;101140.19;;;13.86;67.78
16355;BME280;8287;51.644;8.494;2023-05-20T01:01:12;101131.94;;;13.74;67.79
16355;BME280;8287;51.644;8.494;2023-05-20T01:03:39;101130.94;;;13.61;67.82
16355;BME280;8287;51.644;8.494;2023-05-20T01:06:05;101138.81;;;13.44;68.17
16355;BME280;8287;51.644;8.494;2023-05-20T01:08:32;101140.69;;;13.44;68.57
16355;BME280;8287;51.644;8.494;2023-05-20T01:11:03;101135.00;;;13.59;67.69
16355;BME280;8287;51.644;8.494;2023-05-20T01:13:36;101137.34;;;13.60;67.47
16355;BME280;8287;51.644;8.494;2023-05-20T01:16:07;101135.59;;;13.56;68.21
16355;BME280;8287;51.644;8.494;2023-05-20T01:18:35;101130.72;;;13.49;68.76
16355;BME280;8287;51.644;8.494;2023-05-20T01:21:06;101134.16;;;13.50;69.24
16355;BME280;8287;51.644;8.494;2023-05-20T01:23:38;101129.75;;;13.45;70.00
16355;BME280;8287;51.644;8.494;2023-05-20T01:26:05;101127.56;;;13.47;70.29
16355;BME280;8287;51.644;8.494;2023-05-20T01:28:32;101130.03;;;13.44;70.32
16355;BME280;8287;51.644;8.494;2023-05-20T01:31:00;101129.50;;;13.33;69.92
16355;BME280;8287;51.644;8.494;2023-05-20T01:33:28;101124.53;;;13.18;69.73
16355;BME280;8287;51.644;8.494;2023-05-20T01:35:57;101133.94;;;13.03;70.20
16355;BME280;8287;51.644;8.494;2023-05-20T01:38:25;101134.25;;;12.88;70.09
16355;BME280;8287;51.644;8.494;2023-05-20T01:40:54;101132.78;;;12.95;70.86
16355;BME280;8287;51.644;8.494;2023-05-20T01:43:23;101128.44;;;12.86;70.11
16355;BME280;8287;51.644;8.494;2023-05-20T01:45:50;101125.38;;;12.92;70.95
16355;BME280;8287;51.644;8.494;2023-05-20T01:48:17;101126.09;;;12.98;71.47
16355;BME280;8287;51.644;8.494;2023-05-20T01:50:44;101127.47;;;12.95;71.07
16355;BME280;8287;51.644;8.494;2023-05-20T01:53:10;101120.97;;;12.88;71.00
16355;BME280;8287;51.644;8.494;2023-05-20T01:55:37;101126.94;;;12.93;71.84
16355;BME280;8287;51.644;8.494;2023-05-20T01:58:05;101125.47;;;13.01;72.02
16355;BME280;8287;51.644;8.494;2023-05-20T02:00:32;101120.94;;;13.01;70.97
16355;BME280;8287;51.644;8.494;2023-05-20T02:02:59;101120.84;;;12.93;71.16
16355;BME280;8287;51.644;8.494;2023-05-20T02:05:27;101109.53;;;12.87;70.81
16355;BME280;8287;51.644;8.494;2023-05-20T02:07:53;101115.34;;;12.76;70.68
16355;BME280;8287;51.644;8.494;2023-05-20T02:10:20;101114.72;;;12.57;72.18
16355;BME280;8287;51.644;8.494;2023-05-20T02:12:46;101118.03;;;12.62;71.36
16355;BME280;8287;51.644;8.494;2023-05-20T02:15:15;101109.97;;;12.40;72.21
16355;BME280;8287;51.644;8.494;2023-05-20T02:17:41;101118.47;;;12.29;73.34
16355;BME280;8287;51.644;8.494;2023-05-20T02:20:09;101111.19;;;12.21;73.50
16355;BME280;8287;51.644;8.494;2023-05-20T02:22:36;101118.66;;;12.19;74.13
16355;BME280;8287;51.644;8.494;2023-05-20T02:25:03;101117.75;;;12.23;73.91
16355;BME280;8287;51.644;8.494;2023-05-20T02:27:29;101116.09;;;12.27;74.12
16355;BME280;8287;51.644;8.494;2023-05-20T02:29:56;101110.69;;;12.46;74.05
16355;BME280;8287;51.644;8.494;2023-05-20T02:32:24;101117.19;;;12.53;72.67
16355;BME280;8287;51.644;8.494;2023-05-20T02:34:52;101112.97;;;12.25;73.56
16355;BME280;8287;51.644;8.494;2023-05-20T02:37:19;101120.63;;;12.13;74.17
16355;BME280;8287;51.644;8.494;2023-05-20T02:39:45;101111.38;;;12.11;74.65
16355;BME280;8287;51.644;8.494;2023-05-20T02:42:12;101104.13;;;12.03;74.81
16355;BME280;8287;51.644;8.494;2023-05-20T02:44:38;101104.41;;;12.01;74.88
16355;BME280;8287;51.644;8.494;2023-05-20T02:47:05;101109.78;;;12.10;74.02
16355;BME280;8287;51.644;8.494;2023-05-20T02:49:34;101097.72;;;12.17;74.32
16355;BME280;8287;51.644;8.494;2023-05-20T02:52:00;101111.19;;;12.21;74.04
16355;BME280;8287;51.644;8.494;2023-05-20T02:54:27;101106.78;;;12.30;74.27
16355;BME280;8287;51.644;8.494;2023-05-20T02:56:53;101102.53;;;12.42;73.59
16355;BME280;8287;51.644;8.494;2023-05-20T02:59:20;101097.00;;;12.39;73.79
16355;BME280;8287;51.644;8.494;2023-05-20T03:01:46;101106.66;;;12.35;73.40
16355;BME280;8287;51.644;8.494;2023-05-20T03:04:13;101102.13;;;12.22;73.97
16355;BME280;8287;51.644;8.494;2023-05-20T03:06:41;101097.22;;;12.29;74.36
16355;BME280;8287;51.644;8.494;2023-05-20T03:09:08;101104.41;;;12.28;73.79
16355;BME280;8287;51.644;8.494;2023-05-20T03:11:35;101098.19;;;12.33;74.78
16355;BME280;8287;51.644;8.494;2023-05-20T03:14:02;101101.53;;;12.25;74.29
16355;BME280;8287;51.644;8.494;2023-05-20T03:16:28;101095.75;;;12.23;74.92
16355;BME280;8287;51.644;8.494;2023-05-20T03:18:55;101091.50;;;12.22;75.08
16355;BME280;8287;51.644;8.494;2023-05-20T03:21:21;101099.56;;;12.17;74.56
16355;BME280;8287;51.644;8.494;2023-05-20T03:23:49;101106.44;;;12.04;74.70
16355;BME280;8287;51.644;8.494;2023-05-20T03:26:16;101100.94;;;12.01;74.91
16355;BME280;8287;51.644;8.494;2023-05-20T03:28:43;101105.84;;;11.94;75.43
16355;BME280;8287;51.644;8.494;2023-05-20T03:31:09;101102.50;;;11.88;75.70
16355;BME280;8287;51.644;8.494;2023-05-20T03:33:37;101099.97;;;11.83;76.09
16355;BME280;8287;51.644;8.494;2023-05-20T03:36:04;101098.88;;;11.84;76.21
16355;BME280;8287;51.644;8.494;2023-05-20T03:38:31;101102.91;;;11.82;75.48
16355;BME280;8287;51.644;8.494;2023-05-20T03:40:59;101103.69;;;11.82;76.17
16355;BME280;8287;51.644;8.494;2023-05-20T03:43:26;101094.66;;;11.83;75.92
16355;BME280;8287;51.644;8.494;2023-05-20T03:45:53;101095.31;;;11.75;76.03
16355;BME280;8287;51.644;8.494;2023-05-20T03:48:19;101093.84;;;11.83;76.05
16355;BME280;8287;51.644;8.494;2023-05-20T03:50:46;101098.75;;;11.89;76.23
16355;BME280;8287;51.644;8.494;2023-05-20T03:53:13;101097.19;;;11.88;76.50
16355;BME280;8287;51.644;8.494;2023-05-20T03:55:39;101096.50;;;11.96;77.05
16355;BME280;8287;51.644;8.494;2023-05-20T03:58:08;101100.16;;;12.00;77.14
16355;BME280;8287;51.644;8.494;2023-05-20T04:00:34;101102.03;;;12.00;76.98
16355;BME280;8287;51.644;8.494;2023-05-20T04:03:01;101101.75;;;12.01;76.86
16355;BME280;8287;51.644;8.494;2023-05-20T04:05:27;101100.75;;;11.97;76.31
16355;BME280;8287;51.644;8.494;2023-05-20T04:07:54;101096.03;;;11.94;77.02
16355;BME280;8287;51.644;8.494;2023-05-20T04:10:21;101094.44;;;11.93;77.53
16355;BME280;8287;51.644;8.494;2023-05-20T04:12:48;101095.22;;;11.80;77.76
16355;BME280;8287;51.644;8.494;2023-05-20T04:15:16;101098.47;;;11.77;77.99
16355;BME280;8287;51.644;8.494;2023-05-20T04:17:43;101089.03;;;11.85;79.09
16355;BME280;8287;51.644;8.494;2023-05-20T04:20:12;101087.75;;;11.82;78.33
16355;BME280;8287;51.644;8.494;2023-05-20T04:22:39;101085.38;;;11.81;78.54
16355;BME280;8287;51.644;8.494;2023-05-20T04:25:06;101086.56;;;11.88;78.13
16355;BME280;8287;51.644;8.494;2023-05-20T04:27:34;101092.69;;;11.89;77.98
16355;BME280;8287;51.644;8.494;2023-05-20T04:30:02;101097.50;;;11.87;78.08
16355;BME280;8287;51.644;8.494;2023-05-20T04:32:30;101087.66;;;11.87;79.09
16355;BME280;8287;51.644;8.494;2023-05-20T04:34:57;101097.38;;;11.92;79.11
16355;BME280;8287;51.644;8.494;2023-05-20T04:37:26;101087.78;;;11.96;77.55
16355;BME280;8287;51.644;8.494;2023-05-20T04:39:53;101082.66;;;11.99;77.63
16355;BME280;8287;51.644;8.494;2023-05-20T04:42:19;101092.78;;;11.97;79.29
16355;BME280;8287;51.644;8.494;2023-05-20T04:44:46;101097.19;;;12.02;78.76
16355;BME280;8287;51.644;8.494;2023-05-20T04:47:13;101088.94;;;12.03;78.11
16355;BME280;8287;51.644;8.494;2023-05-20T04:49:41;101091.19;;;12.10;77.88
16355;BME280;8287;51.644;8.494;2023-05-20T04:52:09;101087.09;;;12.17;78.00
16355;BME280;8287;51.644;8.494;2023-05-20T04:54:36;101091.09;;;12.28;76.94
16355;BME280;8287;51.644;8.494;2023-05-20T04:57:04;101083.13;;;12.28;78.33
16355;BME280;8287;51.644;8.494;2023-05-20T04:59:31;101082.06;;;12.29;78.90
16355;BME280;8287;51.644;8.494;2023-05-20T05:01:57;101085.38;;;12.35;79.46
16355;BME280;8287;51.644;8.494;2023-05-20T05:04:24;101087.75;;;12.36;79.00
16355;BME280;8287;51.644;8.494;2023-05-20T05:06:52;101083.13;;;12.28;79.34
16355;BME280;8287;51.644;8.494;2023-05-20T05:09:18;101081.16;;;12.34;79.77
16355;BME280;8287;51.644;8.494;2023-05-20T05:11:45;101083.53;;;12.35;80.00
16355;BME280;8287;51.644;8.494;2023-05-20T05:14:11;101093.56;;;12.38;80.71
16355;BME280;8287;51.644;8.494;2023-05-20T05:16:39;101087.88;;;12.45;79.72
16355;BME280;8287;51.644;8.494;2023-05-20T05:19:05;101088.81;;;12.49;79.86
16355;BME280;8287;51.644;8.494;2023-05-20T05:21:32;101077.50;;;12.57;79.26
16355;BME280;8287;51.644;8.494;2023-05-20T05:24:00;101082.81;;;12.57;79.12
16355;BME280;8287;51.644;8.494;2023-05-20T05:26:27;101084.75;;;12.65;78.73
16355;BME280;8287;51.644;8.494;2023-05-20T05:28:54;101083.78;;;12.74;78.36
16355;BME280;8287;51.644;8.494;2023-05-20T05:31:20;101083.34;;;12.81;77.87
16355;BME280;8287;51.644;8.494;2023-05-20T05:33:47;101081.28;;;12.78;78.64
16355;BME280;8287;51.644;8.494;2023-05-20T05:36:14;101080.09;;;12.84;78.67
16355;BME280;8287;51.644;8.494;2023-05-20T05:38:40;101079.88;;;12.80;79.13
16355;BME280;8287;51.644;8.494;2023-05-20T05:41:09;101079.78;;;12.85;79.02
16355;BME280;8287;51.644;8.494;2023-05-20T05:43:36;101090.41;;;12.99;78.64
16355;BME280;8287;51.644;8.494;2023-05-20T05:46:03;101090.16;;;13.09;78.13
16355;BME280;8287;51.644;8.494;2023-05-20T05:48:30;101096.16;;;13.14;78.08
16355;BME280;8287;51.644;8.494;2023-05-20T05:50:56;101093.09;;;13.21;77.57
16355;BME280;8287;51.644;8.494;2023-05-20T05:53:23;101088.47;;;13.34;77.66
16355;BME280;8287;51.644;8.494;2023-05-20T05:55:49;101090.72;;;13.19;77.29
16355;BME280;8287;51.644;8.494;2023-05-20T05:58:17;101083.66;;;13.15;78.48
16355;BME280;8287;51.644;8.494;2023-05-20T06:00:44;101079.25;;;13.10;79.31
16355;BME280;8287;51.644;8.494;2023-05-20T06:03:10;101083.63;;;13.36;79.44
16355;BME280;8287;51.644;8.494;2023-05-20T06:05:37;101073.53;;;13.47;78.04
16355;BME280;8287;51.644;8.494;2023-05-20T06:08:04;101079.09;;;13.59;77.45
16355;BME280;8287;51.644;8.494;2023-05-20T06:10:31;101074.44;;;13.73;77.92
16355;BME280;8287;51.644;8.494;2023-05-20T06:12:57;101068.16;;;13.69;78.19
16355;BME280;8287;51.644;8.494;2023-05-20T06:15:25;101063.84;;;13.81;77.62
16355;BME280;8287;51.644;8.494;2023-05-20T06:17:52;101067.03;;;13.92;77.42
16355;BME280;8287;51.644;8.494;2023-05-20T06:20:18;101064.25;;;14.05;77.59
16355;BME280;8287;51.644;8.494;2023-05-20T06:22:45;101060.19;;;14.16;77.02
16355;BME280;8287;51.644;8.494;2023-05-20T06:25:12;101069.97;;;14.21;77.60
16355;BME280;8287;51.644;8.494;2023-05-20T06:27:39;101053.22;;;14.29;77.97
16355;BME280;8287;51.644;8.494;2023-05-20T06:30:07;101062.59;;;14.26;78.10
16355;BME280;8287;51.644;8.494;2023-05-20T06:32:35;101062.47;;;14.40;77.83
16355;BME280;8287;51.644;8.494;2023-05-20T06:35:01;101055.09;;;14.45;77.40
16355;BME280;8287;51.644;8.494;2023-05-20T06:37:28;101057.97;;;14.57;77.75
16355;BME280;8287;51.644;8.494;2023-05-20T06:39:55;101057.66;;;14.76;76.43
16355;BME280;8287;51.644;8.494;2023-05-20T06:42:21;101059.88;;;14.82;76.14
16355;BME280;8287;51.644;8.494;2023-05-20T06:44:48;101067.41;;;14.80;75.52
16355;BME280;8287;51.644;8.494;2023-05-20T06:47:16;101066.44;;;14.93;76.03
16355;BME280;8287;51.644;8.494;2023-05-20T06:49:44;101062.50;;;14.91;75.79
16355;BME280;8287;51.644;8.494;2023-05-20T06:52:10;101055.59;;;14.90;75.39
16355;BME280;8287;51.644;8.494;2023-05-20T06:54:37;101048.41;;;14.90;74.75
16355;BME280;8287;51.644;8.494;2023-05-20T06:57:06;101061.09;;;15.10;74.95
16355;BME280;8287;51.644;8.494;2023-05-20T06:59:33;101055.41;;;15.29;74.33
16355;BME280;8287;51.644;8.494;2023-05-20T07:01:59;101048.38;;;15.33;73.44
16355;BME280;8287;51.644;8.494;2023-05-20T07:04:26;101052.75;;;15.37;73.20
16355;BME280;8287;51.644;8.494;2023-05-20T07:06:54;101049.81;;;15.13;72.50
16355;BME280;8287;51.644;8.494;2023-05-20T07:09:20;101048.38;;;15.24;74.02
16355;BME280;8287;51.644;8.494;2023-05-20T07:11:47;101047.75;;;15.10;74.39
16355;BME280;8287;51.644;8.494;2023-05-20T07:14:14;101041.28;;;15.28;74.14
16355;BME280;8287;51.644;8.494;2023-05-20T07:16:41;101042.38;;;15.44;73.22
16355;BME280;8287;51.644;8.494;2023-05-20T07:19:07;101036.06;;;15.57;72.96
16355;BME280;8287;51.644;8.494;2023-05-20T07:21:34;101027.09;;;15.62;72.47
16355;BME280;8287;51.644;8.494;2023-05-20T07:24:02;101026.06;;;15.75;71.88
16355;BME280;8287;51.644;8.494;2023-05-20T07:26:29;101026.56;;;15.68;72.24
16355;BME280;8287;51.644;8.494;2023-05-20T07:28:57;101027.09;;;15.62;72.50
16355;BME280;8287;51.644;8.494;2023-05-20T07:31:24;101017.75;;;15.76;71.97
16355;BME280;8287;51.644;8.494;2023-05-20T07:33:51;101008.81;;;15.72;72.23
16355;BME280;8287;51.644;8.494;2023-05-20T07:36:17;101009.72;;;15.76;72.09
16355;BME280;8287;51.644;8.494;2023-05-20T07:38:44;101009.47;;;15.98;71.63
16355;BME280;8287;51.644;8.494;2023-05-20T07:41:12;101002.66;;;15.80;70.53
16355;BME280;8287;51.644;8.494;2023-05-20T07:43:38;101002.31;;;15.44;72.22
16355;BME280;8287;51.644;8.494;2023-05-20T07:46:05;101006.06;;;15.52;72.75
16355;BME280;8287;51.644;8.494;2023-05-20T07:48:31;101004.84;;;15.78;72.02
16355;BME280;8287;51.644;8.494;2023-05-20T07:50:58;101005.25;;;15.97;71.77
16355;BME280;8287;51.644;8.494;2023-05-20T07:53:25;101006.84;;;16.19;71.10
16355;BME280;8287;51.644;8.494;2023-05-20T07:55:51;101004.84;;;16.07;69.85
16355;BME280;8287;51.644;8.494;2023-05-20T07:58:19;100993.59;;;15.93;70.73
16355;BME280;8287;51.644;8.494;2023-05-20T08:00:46;100998.88;;;16.31;70.04
16355;BME280;8287;51.644;8.494;2023-05-20T08:03:12;100998.78;;;16.48;70.22
16355;BME280;8287;51.644;8.494;2023-05-20T08:05:40;101004.22;;;16.39;68.75
16355;BME280;8287;51.644;8.494;2023-05-20T08:08:07;101007.59;;;16.48;68.71
16355;BME280;8287;51.644;8.494;2023-05-20T08:10:34;101000.44;;;16.61;69.76
16355;BME280;8287;51.644;8.494;2023-05-20T08:13:01;101007.03;;;16.95;68.64
16355;BME280;8287;51.644;8.494;2023-05-20T08:15:29;101008.31;;;17.22;68.23
16355;BME280;8287;51.644;8.494;2023-05-20T08:17:55;100998.72;;;17.53;67.83
16355;BME280;8287;51.644;8.494;2023-05-20T08:20:22;100985.66;;;17.76;67.86
16355;BME280;8287;51.644;8.494;2023-05-20T08:22:50;100984.09;;;17.87;67.08
16355;BME280;8287;51.644;8.494;2023-05-20T08:25:17;100985.66;;;17.88;67.29
16355;BME280;8287;51.644;8.494;2023-05-20T08:27:44;100983.53;;;18.05;65.77
16355;BME280;8287;51.644;8.494;2023-05-20T08:30:11;100992.44;;;18.21;65.18
16355;BME280;8287;51.644;8.494;2023-05-20T08:32:39;100986.25;;;18.45;65.26
16355;BME280;8287;51.644;8.494;2023-05-20T08:35:06;100989.00;;;18.60;64.01
16355;BME280;8287;51.644;8.494;2023-05-20T08:37:33;100975.59;;;17.97;64.14
16355;BME280;8287;51.644;8.494;2023-05-20T08:40:00;100981.16;;;18.04;64.38
16355;BME280;8287;51.644;8.494;2023-05-20T08:42:26;100980.38;;;18.27;63.98
16355;BME280;8287;51.644;8.494;2023-05-20T08:44:53;100984.38;;;18.33;63.81
16355;BME280;8287;51.644;8.494;2023-05-20T08:47:21;100985.75;;;18.03;64.22
16355;BME280;8287;51.644;8.494;2023-05-20T08:49:49;100985.63;;;18.12;64.05
16355;BME280;8287;51.644;8.494;2023-05-20T08:52:17;100979.47;;;18.23;63.58
16355;BME280;8287;51.644;8.494;2023-05-20T08:54:47;100982.06;;;18.08;62.48
16355;BME280;8287;51.644;8.494;2023-05-20T08:57:14;100979.28;;;17.92;64.11
16355;BME280;8287;51.644;8.494;2023-05-20T08:59:41;100974.31;;;18.18;63.29
16355;BME280;8287;51.644;8.494;2023-05-20T09:02:09;100986.03;;;18.50;63.47
16355;BME280;8287;51.644;8.494;2023-05-20T09:04:36;100983.28;;;18.62;63.34
16355;BME280;8287;51.644;8.494;2023-05-20T09:07:04;100979.50;;;19.06;61.83
16355;BME280;8287;51.644;8.494;2023-05-20T09:09:32;100967.19;;;19.32;62.43
16355;BME280;8287;51.644;8.494;2023-05-20T09:12:00;100973.66;;;19.47;59.14
16355;BME280;8287;51.644;8.494;2023-05-20T09:14:27;100964.41;;;19.60;60.50
16355;BME280;8287;51.644;8.494;2023-05-20T09:16:54;100965.72;;;19.66;59.59
16355;BME280;8287;51.644;8.494;2023-05-20T09:19:21;100964.13;;;19.65;60.19
16355;BME280;8287;51.644;8.494;2023-05-20T09:21:48;100963.91;;;19.89;58.70
16355;BME280;8287;51.644;8.494;2023-05-20T09:24:19;100967.34;;;19.70;57.97
16355;BME280;8287;51.644;8.494;2023-05-20T09:26:45;100969.25;;;19.39;58.82
16355;BME280;8287;51.644;8.494;2023-05-20T09:29:13;100970.94;;;18.73;60.59
16355;BME280;8287;51.644;8.494;2023-05-20T09:31:39;100978.63;;;18.59;60.82
16355;BME280;8287;51.644;8.494;2023-05-20T09:34:06;100971.91;;;18.53;60.74
16355;BME280;8287;51.644;8.494;2023-05-20T09:36:34;100972.22;;;18.91;61.17
16355;BME280;8287;51.644;8.494;2023-05-20T09:39:02;100964.56;;;19.36;60.31
16355;BME280;8287;51.644;8.494;2023-05-20T09:41:32;100963.16;;;19.88;59.38
16355;BME280;8287;51.644;8.494;2023-05-20T09:43:59;100960.47;;;19.73;58.12
16355;BME280;8287;51.644;8.494;2023-05-20T09:46:27;100978.25;;;18.88;59.29
16355;BME280;8287;51.644;8.494;2023-05-20T09:48:54;100965.44;;;19.24;61.44
16355;BME280;8287;51.644;8.494;2023-05-20T09:51:21;100960.50;;;19.42;59.23
16355;BME280;8287;51.644;8.494;2023-05-20T09:53:49;100966.84;;;19.34;59.48
16355;BME280;8287;51.644;8.494;2023-05-20T09:56:19;100962.69;;;19.36;59.92
16355;BME280;8287;51.644;8.494;2023-05-20T09:58:48;100964.06;;;19.30;58.43
16355;BME280;8287;51.644;8.494;2023-05-20T10:01:17;100956.50;;;19.67;59.43
16355;BME280;8287;51.644;8.494;2023-05-20T10:03:44;100960.50;;;19.42;58.76
16355;BME280;8287;51.644;8.494;2023-05-20T10:06:22;100957.38;;;19.40;58.74
16355;BME280;8287;51.644;8.494;2023-05-20T10:09:14;100954.72;;;19.90;59.05
16355;BME280;8287;51.644;8.494;2023-05-20T10:11:58;100957.97;;;19.99;58.00
16355;BME280;8287;51.644;8.494;2023-05-20T10:14:39;100950.78;;;20.03;58.10
16355;BME280;8287;51.644;8.494;2023-05-20T10:17:19;100952.31;;;19.85;56.77
16355;BME280;8287;51.644;8.494;2023-05-20T10:19:48;100945.84;;;19.70;60.04
16355;BME280;8287;51.644;8.494;2023-05-20T10:22:25;100949.19;;;19.83;57.71
16355;BME280;8287;51.644;8.494;2023-05-20T10:24:57;100939.91;;;20.15;57.63
16355;BME280;8287;51.644;8.494;2023-05-20T10:27:24;100937.56;;;19.79;57.91
16355;BME280;8287;51.644;8.494;2023-05-20T10:29:53;100935.09;;;20.05;57.87
16355;BME280;8287;51.644;8.494;2023-05-20T10:32:24;100941.69;;;20.07;56.99
16355;BME280;8287;51.644;8.494;2023-05-20T10:34:51;100936.63;;;19.71;58.05
16355;BME280;8287;51.644;8.494;2023-05-20T10:37:22;100942.53;;;19.77;57.80
16355;BME280;8287;51.644;8.494;2023-05-20T10:39:50;100933.47;;;20.19;58.06
16355;BME280;8287;51.644;8.494;2023-05-20T10:42:26;100936.91;;;20.54;57.63
16355;BME280;8287;51.644;8.494;2023-05-20T10:44:55;100931.31;;;20.25;57.76
16355;BME280;8287;51.644;8.494;2023-05-20T10:47:22;100927.59;;;20.70;56.96
16355;BME280;8287;51.644;8.494;2023-05-20T10:49:49;100918.97;;;20.42;56.66
16355;BME280;8287;51.644;8.494;2023-05-20T10:52:16;100917.88;;;20.66;57.17
16355;BME280;8287;51.644;8.494;2023-05-20T10:54:44;100923.03;;;20.93;56.31
16355;BME280;8287;51.644;8.494;2023-05-20T10:57:11;100917.72;;;20.97;55.24
16355;BME280;8287;51.644;8.494;2023-05-20T10:59:38;100924.91;;;20.70;56.23
16355;BME280;8287;51.644;8.494;2023-05-20T11:02:07;100920.34;;;20.93;56.10
16355;BME280;8287;51.644;8.494;2023-05-20T11:04:36;100920.06;;;20.79;55.87
16355;BME280;8287;51.644;8.494;2023-05-20T11:07:03;100922.63;;;20.91;56.50
16355;BME280;8287;51.644;8.494;2023-05-20T11:09:30;100910.16;;;20.64;57.18
16355;BME280;8287;51.644;8.494;2023-05-20T11:11:58;100899.28;;;20.99;56.86
16355;BME280;8287;51.644;8.494;2023-05-20T11:14:27;100910.84;;;20.80;55.58
16355;BME280;8287;51.644;8.494;2023-05-20T11:16:55;100904.53;;;20.92;55.38
16355;BME280;8287;51.644;8.494;2023-05-20T11:19:23;100906.34;;;21.07;53.62
16355;BME280;8287;51.644;8.494;2023-05-20T11:21:51;100907.34;;;21.21;55.18
16355;BME280;8287;51.644;8.494;2023-05-20T11:24:22;100911.59;;;21.00;55.38
16355;BME280;8287;51.644;8.494;2023-05-20T11:26:50;100908.38;;;21.13;55.13
16355;BME280;8287;51.644;8.494;2023-05-20T11:29:18;100903.16;;;21.01;54.46
16355;BME280;8287;51.644;8.494;2023-05-20T11:31:47;100910.50;;;19.87;56.89
16355;BME280;8287;51.644;8.494;2023-05-20T11:34:14;100911.00;;;19.77;57.70
16355;BME280;8287;51.644;8.494;2023-05-20T11:36:42;100904.81;;;20.27;56.73
16355;BME280;8287;51.644;8.494;2023-05-20T11:39:08;100903.81;;;20.35;58.05
16355;BME280;8287;51.644;8.494;2023-05-20T11:41:35;100901.63;;;20.40;56.31
16355;BME280;8287;51.644;8.494;2023-05-20T11:44:03;100901.09;;;20.53;55.54
16355;BME280;8287;51.644;8.494;2023-05-20T11:46:30;100893.59;;;20.62;55.24
16355;BME280;8287;51.644;8.494;2023-05-20T11:48:57;100896.59;;;20.80;54.66
16355;BME280;8287;51.644;8.494;2023-05-20T11:51:23;100895.19;;;20.26;55.40
16355;BME280;8287;51.644;8.494;2023-05-20T11:53:58;100889.22;;;20.36;56.93
16355;BME280;8287;51.644;8.494;2023-05-20T11:56:24;100881.41;;;20.31;55.94
16355;BME280;8287;51.644;8.494;2023-05-20T11:58:51;100877.28;;;20.55;55.56
16355;BME280;8287;51.644;8.494;2023-05-20T12:01:17;100878.22;;;20.44;55.86
16355;BME280;8287;51.644;8.494;2023-05-20T12:03:44;100873.78;;;20.33;55.56
16355;BME280;8287;51.644;8.494;2023-05-20T12:06:11;100868.28;;;19.72;56.61
16355;BME280;8287;51.644;8.494;2023-05-20T12:08:38;100867.94;;;19.93;57.60
16355;BME280;8287;51.644;8.494;2023-05-20T12:11:06;100863.56;;;20.04;56.57
16355;BME280;8287;51.644;8.494;2023-05-20T12:13:33;100868.63;;;20.24;57.41
16355;BME280;8287;51.644;8.494;2023-05-20T12:15:59;100865.09;;;20.20;57.51
16355;BME280;8287;51.644;8.494;2023-05-20T12:18:26;100869.88;;;20.49;57.69
16355;BME280;8287;51.644;8.494;2023-05-20T12:20:52;100873.78;;;20.74;56.80
16355;BME280;8287;51.644;8.494;2023-05-20T12:23:19;100875.75;;;20.36;54.91
16355;BME280;8287;51.644;8.494;2023-05-20T12:25:46;100879.47;;;19.93;56.70
16355;BME280;8287;51.644;8.494;2023-05-20T12:28:15;100874.03;;;20.46;56.44
16355;BME280;8287;51.644;8.494;2023-05-20T12:30:43;100866.44;;;20.71;55.37
16355;BME280;8287;51.644;8.494;2023-05-20T12:33:10;100871.28;;;20.84;55.50
16355;BME280;8287;51.644;8.494;2023-05-20T12:35:39;100875.59;;;20.66;54.70
16355;BME280;8287;51.644;8.494;2023-05-20T12:38:06;100875.78;;;20.99;56.09
16355;BME280;8287;51.644;8.494;2023-05-20T12:40:33;100855.81;;;20.81;54.66
16355;BME280;8287;51.644;8.494;2023-05-20T12:43:01;100866.34;;;20.26;55.12
16355;BME280;8287;51.644;8.494;2023-05-20T12:45:30;100867.97;;;20.31;56.46
16355;BME280;8287;51.644;8.494;2023-05-20T12:47:56;100866.56;;;20.37;56.62
16355;BME280;8287;51.644;8.494;2023-05-20T12:50:23;100859.84;;;20.68;55.66
16355;BME280;8287;51.644;8.494;2023-05-20T12:52:50;100853.38;;;20.73;55.50
16355;BME280;8287;51.644;8.494;2023-05-20T12:55:17;100860.06;;;21.01;54.94
16355;BME280;8287;51.644;8.494;2023-05-20T12:57:44;100849.97;;;20.98;54.97
16355;BME280;8287;51.644;8.494;2023-05-20T13:00:12;100849.16;;;20.94;54.16